createdAt,value
2018-09-09T00:00:14.244Z,5.25
2018-09-09T00:02:42.572Z,4.80
2018-09-09T00:05:10.846Z,4.80
2018-09-09T00:07:39.200Z,4.90
2018-09-09T00:10:07.837Z,5.08
2018-09-09T00:12:36.288Z,4.70
2018-09-09T00:15:04.618Z,5.05
2018-09-09T00:17:32.929Z,4.80
2018-09-09T00:20:01.275Z,5.50
2018-09-09T00:22:29.566Z,5.22
2018-09-09T00:24:57.912Z,5.25
2018-09-09T00:27:26.308Z,5.00
2018-09-09T00:29:54.645Z,5.22
2018-09-09T00:32:22.925Z,4.80
2018-09-09T00:34:51.259Z,5.25
2018-09-09T00:37:19.685Z,4.92
2018-09-09T00:39:48.020Z,5.00
2018-09-09T00:42:16.278Z,5.20
2018-09-09T00:44:44.572Z,5.70
2018-09-09T00:47:12.925Z,5.30
2018-09-09T00:49:46.631Z,5.30
2018-09-09T00:52:20.207Z,4.95
2018-09-09T00:54:48.519Z,4.70
2018-09-09T00:57:16.813Z,4.90
2018-09-09T00:59:45.223Z,5.30
2018-09-09T01:02:13.509Z,5.10
2018-09-09T01:04:41.777Z,5.58
2018-09-09T01:07:10.132Z,5.85
2018-09-09T01:09:38.437Z,5.58
2018-09-09T01:12:06.794Z,4.83
2018-09-09T01:14:35.447Z,5.30
2018-09-09T01:17:03.843Z,4.80
2018-09-09T01:19:32.110Z,5.30
2018-09-09T01:22:00.445Z,5.22
2018-09-09T01:24:28.712Z,5.33
2018-09-09T01:26:57.046Z,5.35
2018-09-09T01:29:25.363Z,5.50
2018-09-09T01:31:53.713Z,5.85
2018-09-09T01:34:22.057Z,5.03
2018-09-09T01:36:50.769Z,5.45
2018-09-09T01:39:19.072Z,5.50
2018-09-09T01:41:47.377Z,5.50
2018-09-09T01:44:15.700Z,5.60
2018-09-09T01:46:44.225Z,5.80
2018-09-09T01:49:12.561Z,5.60
2018-09-09T01:51:40.842Z,5.70
2018-09-09T01:54:09.153Z,5.47
2018-09-09T01:56:37.487Z,5.90
2018-09-09T01:59:05.841Z,5.75
2018-09-09T02:01:34.140Z,5.90
2018-09-09T02:04:02.435Z,5.93
2018-09-09T02:06:30.772Z,5.50
2018-09-09T02:08:59.053Z,5.72
2018-09-09T02:11:27.393Z,5.80
2018-09-09T02:13:55.739Z,5.20
2018-09-09T02:16:24.029Z,5.60
2018-09-09T02:18:52.388Z,5.62
2018-09-09T02:21:20.706Z,5.70
2018-09-09T02:23:49.032Z,5.40
2018-09-09T02:26:17.358Z,6.10
2018-09-09T02:28:45.689Z,5.70
2018-09-09T02:31:13.946Z,6.00
2018-09-09T02:33:42.248Z,5.33
2018-09-09T02:36:10.580Z,6.20
2018-09-09T02:38:38.875Z,6.00
2018-09-09T02:41:07.223Z,5.40
2018-09-09T02:43:35.653Z,6.08
2018-09-09T02:46:04.016Z,5.70
2018-09-09T02:48:32.386Z,5.80
2018-09-09T02:51:00.710Z,6.22
2018-09-09T02:53:29.047Z,6.17
2018-09-09T02:55:57.341Z,6.37
2018-09-09T02:58:25.640Z,6.57
2018-09-09T03:00:53.953Z,6.50
2018-09-09T03:03:22.222Z,6.00
2018-09-09T03:05:50.604Z,6.50
2018-09-09T03:08:18.922Z,6.75
2018-09-09T03:10:51.379Z,6.90
2018-09-09T03:13:19.703Z,6.50
2018-09-09T03:15:48.009Z,6.30
2018-09-09T03:18:16.340Z,6.65
2018-09-09T03:20:44.655Z,6.22
2018-09-09T03:23:12.956Z,6.40
2018-09-09T03:25:41.209Z,6.40
2018-09-09T03:28:09.482Z,6.40
2018-09-09T03:30:37.907Z,6.47
2018-09-09T03:33:06.208Z,6.35
2018-09-09T03:35:34.532Z,6.37
2018-09-09T03:38:03.082Z,6.10
2018-09-09T03:40:31.385Z,6.15
2018-09-09T03:42:59.708Z,6.62
2018-09-09T03:45:27.997Z,6.60
2018-09-09T03:47:56.309Z,6.40
2018-09-09T03:50:24.654Z,6.40
2018-09-09T03:52:52.988Z,6.70
2018-09-09T03:55:21.299Z,6.30
2018-09-09T03:57:49.632Z,6.53
2018-09-09T04:00:17.969Z,6.60
2018-09-09T04:02:46.338Z,6.22
2018-09-09T04:05:14.660Z,6.35
2018-09-09T04:07:42.979Z,6.80
2018-09-09T04:10:11.328Z,6.20
2018-09-09T04:12:39.650Z,6.20
2018-09-09T04:15:07.967Z,6.40
2018-09-09T04:17:36.388Z,7.00
2018-09-09T04:20:04.692Z,7.10
2018-09-09T04:22:33.068Z,6.70
2018-09-09T04:25:01.386Z,6.50
2018-09-09T04:27:29.709Z,6.80
2018-09-09T04:29:57.999Z,6.50
2018-09-09T04:32:26.303Z,6.80
2018-09-09T04:34:54.626Z,6.60
2018-09-09T04:37:22.976Z,7.20
2018-09-09T04:39:51.284Z,6.83
2018-09-09T04:42:19.591Z,6.87
2018-09-09T04:44:47.916Z,6.45
2018-09-09T04:47:16.243Z,6.50
2018-09-09T04:49:44.587Z,7.10
2018-09-09T04:52:12.907Z,7.00
2018-09-09T04:54:41.268Z,6.85
2018-09-09T04:57:09.563Z,6.92
2018-09-09T04:59:37.872Z,6.72
2018-09-09T05:02:06.317Z,6.75
2018-09-09T05:04:34.591Z,6.70
2018-09-09T05:07:02.915Z,8.55
2018-09-09T05:09:31.208Z,8.10
2018-09-09T05:11:59.527Z,8.05
2018-09-09T05:14:27.931Z,6.60
2018-09-09T05:16:56.240Z,6.65
2018-09-09T05:19:24.566Z,6.53
2018-09-09T05:21:52.909Z,6.55
2018-09-09T05:24:21.512Z,6.55
2018-09-09T05:26:49.828Z,6.10
2018-09-09T05:29:18.107Z,6.20
2018-09-09T05:31:46.460Z,6.58
2018-09-09T05:34:14.805Z,6.28
2018-09-09T05:36:43.123Z,6.65
2018-09-09T05:39:12.276Z,6.40
2018-09-09T05:41:40.599Z,6.35
2018-09-09T05:44:08.996Z,6.12
2018-09-09T05:46:37.355Z,6.45
2018-09-09T05:49:05.720Z,6.78
2018-09-09T05:51:34.107Z,6.63
2018-09-09T05:54:02.426Z,6.60
2018-09-09T05:56:30.733Z,6.00
2018-09-09T05:58:59.063Z,6.05
2018-09-09T06:01:27.399Z,6.12
2018-09-09T06:03:55.736Z,6.20
2018-09-09T06:06:24.090Z,6.78
2018-09-09T06:08:52.391Z,6.42
2018-09-09T06:11:20.746Z,6.30
2018-09-09T06:13:49.049Z,6.08
2018-09-09T06:16:17.391Z,5.90
2018-09-09T06:18:45.701Z,6.30
2018-09-09T06:21:14.079Z,6.45
2018-09-09T06:23:42.459Z,6.83
2018-09-09T06:26:10.794Z,5.90
2018-09-09T06:28:39.113Z,6.20
2018-09-09T06:31:07.418Z,6.00
2018-09-09T06:33:35.798Z,5.90
2018-09-09T06:36:04.081Z,5.97
2018-09-09T06:38:32.396Z,5.70
2018-09-09T06:41:00.816Z,5.90
2018-09-09T06:43:29.154Z,6.00
2018-09-09T06:45:57.501Z,5.37
2018-09-09T06:48:25.822Z,5.40
2018-09-09T06:50:54.180Z,6.17
2018-09-09T06:53:22.537Z,5.50
2018-09-09T06:55:50.854Z,5.00
2018-09-09T06:58:19.203Z,7.12
2018-09-09T07:00:47.530Z,6.05
2018-09-09T07:03:15.844Z,5.10
2018-09-09T07:05:44.166Z,6.37
2018-09-09T07:08:12.482Z,6.90
2018-09-09T07:10:40.849Z,4.58
2018-09-09T07:13:09.148Z,4.00
2018-09-09T07:15:37.458Z,3.80
2018-09-09T07:18:06.162Z,4.28
2018-09-09T07:20:34.489Z,4.90
2018-09-09T07:23:02.792Z,3.80
2018-09-09T07:25:31.109Z,4.47
2018-09-09T07:27:59.438Z,3.70
2018-09-09T07:30:27.741Z,3.47
2018-09-09T07:32:56.012Z,3.77
2018-09-09T07:35:24.334Z,4.00
2018-09-09T07:37:59.367Z,5.30
2018-09-09T07:40:27.661Z,4.72
2018-09-09T07:42:55.964Z,3.90
2018-09-09T07:45:24.333Z,3.60
2018-09-09T07:47:52.800Z,3.05
2018-09-09T07:50:21.183Z,3.27
2018-09-09T07:52:49.502Z,3.60
2018-09-09T07:55:17.848Z,4.12
2018-09-09T07:57:46.151Z,3.95
2018-09-09T08:00:14.535Z,5.22
2018-09-09T08:02:42.849Z,11.75
2018-09-09T08:05:11.157Z,4.62
2018-09-09T08:07:39.499Z,3.12
2018-09-09T08:10:07.823Z,2.80
2018-09-09T08:12:36.162Z,3.02
2018-09-09T08:15:04.511Z,3.37
2018-09-09T08:17:32.804Z,3.00
2018-09-09T08:20:01.097Z,3.00
2018-09-09T08:22:29.456Z,3.10
2018-09-09T08:24:57.776Z,2.77
2018-09-09T08:27:26.167Z,2.50
2018-09-09T08:29:54.559Z,2.70
2018-09-09T08:32:23.082Z,2.80
2018-09-09T08:34:51.433Z,2.90
2018-09-09T08:37:19.731Z,3.20
2018-09-09T08:39:48.022Z,2.60
2018-09-09T08:42:16.342Z,2.90
2018-09-09T08:44:44.626Z,2.50
2018-09-09T08:47:12.942Z,3.00
2018-09-09T08:49:41.237Z,2.40
2018-09-09T08:52:09.611Z,3.60
2018-09-09T08:54:37.948Z,3.27
2018-09-09T08:57:06.308Z,3.65
2018-09-09T08:59:34.661Z,2.80
2018-09-09T09:02:03.007Z,3.00
2018-09-09T09:04:31.302Z,3.33
2018-09-09T09:06:59.625Z,2.50
2018-09-09T09:09:27.926Z,2.50
2018-09-09T09:11:56.480Z,3.00
2018-09-09T09:14:24.809Z,3.20
2018-09-09T09:16:53.190Z,3.00
2018-09-09T09:19:21.845Z,2.60
2018-09-09T09:21:50.167Z,2.90
2018-09-09T09:24:18.546Z,2.90
2018-09-09T09:26:46.847Z,3.00
2018-09-09T09:29:15.319Z,2.80
2018-09-09T09:31:43.671Z,2.70
2018-09-09T09:34:11.982Z,2.50
2018-09-09T09:36:40.263Z,2.67
2018-09-09T09:39:08.896Z,3.00
2018-09-09T09:41:37.202Z,2.52
2018-09-09T09:44:05.535Z,2.55
2018-09-09T09:46:33.844Z,3.12
2018-09-09T09:49:02.287Z,3.20
2018-09-09T09:51:30.600Z,2.22
2018-09-09T09:53:58.919Z,2.17
2018-09-09T09:56:27.197Z,2.70
2018-09-09T09:58:55.501Z,2.25
2018-09-09T10:01:23.941Z,2.20
2018-09-09T10:03:52.262Z,2.20
2018-09-09T10:06:20.608Z,2.50
2018-09-09T10:08:48.956Z,2.17
2018-09-09T10:11:17.268Z,2.40
2018-09-09T10:13:45.537Z,2.45
2018-09-09T10:16:14.152Z,2.10
2018-09-09T10:18:42.466Z,2.00
2018-09-09T10:21:10.783Z,1.90
2018-09-09T10:23:39.167Z,1.80
2018-09-09T10:26:07.485Z,2.20
2018-09-09T10:28:35.868Z,2.20
2018-09-09T10:31:04.210Z,2.47
2018-09-09T10:33:32.544Z,2.10
2018-09-09T10:36:00.837Z,2.10
2018-09-09T10:38:29.188Z,2.70
2018-09-09T10:40:57.516Z,2.10
2018-09-09T10:43:26.048Z,2.30
2018-09-09T10:45:54.428Z,2.30
2018-09-09T10:48:22.842Z,2.17
2018-09-09T10:50:51.189Z,2.25
2018-09-09T10:53:19.583Z,2.10
2018-09-09T10:55:47.864Z,1.70
2018-09-09T10:58:16.227Z,1.87
2018-09-09T11:00:44.539Z,2.60
2018-09-09T11:03:12.898Z,1.90
2018-09-09T11:05:41.556Z,2.40
2018-09-09T11:08:13.461Z,1.90
2018-09-09T11:10:41.967Z,1.87
2018-09-09T11:13:10.236Z,2.10
2018-09-09T11:15:38.567Z,3.33
2018-09-09T11:18:06.947Z,2.10
2018-09-09T11:20:35.204Z,1.98
2018-09-09T11:23:03.533Z,1.60
2018-09-09T11:25:31.867Z,1.80
2018-09-09T11:28:00.271Z,1.80
2018-09-09T11:30:28.620Z,1.80
2018-09-09T11:32:56.983Z,2.10
2018-09-09T11:35:25.337Z,1.95
2018-09-09T11:37:53.836Z,1.60
2018-09-09T11:40:22.141Z,1.90
2018-09-09T11:42:50.459Z,1.70
2018-09-09T11:45:18.736Z,1.87
2018-09-09T11:47:47.059Z,1.90
2018-09-09T11:50:15.409Z,1.95
2018-09-09T11:52:43.735Z,1.80
2018-09-09T11:55:12.035Z,1.90
2018-09-09T11:57:40.460Z,2.20
2018-09-09T12:00:08.805Z,2.00
2018-09-09T12:02:37.095Z,1.70
2018-09-09T12:05:05.582Z,1.90
2018-09-09T12:07:33.890Z,1.60
2018-09-09T12:10:02.177Z,1.80
2018-09-09T12:12:30.484Z,2.03
2018-09-09T12:14:59.532Z,2.00
2018-09-09T12:17:27.850Z,1.60
2018-09-09T12:19:56.177Z,1.75
2018-09-09T12:22:24.479Z,1.85
2018-09-09T12:24:52.764Z,2.00
2018-09-09T12:27:21.080Z,1.60
2018-09-09T12:29:49.387Z,1.65
2018-09-09T12:32:17.710Z,2.00
2018-09-09T12:34:45.982Z,1.67
2018-09-09T12:37:14.308Z,1.70
2018-09-09T12:39:42.620Z,1.70
2018-09-09T12:42:10.983Z,1.70
2018-09-09T12:44:44.538Z,1.90
2018-09-09T12:47:18.239Z,1.80
2018-09-09T12:49:46.607Z,1.70
2018-09-09T12:52:15.051Z,1.70
2018-09-09T12:54:43.363Z,1.60
2018-09-09T12:57:11.647Z,1.50
2018-09-09T12:59:39.947Z,1.60
2018-09-09T13:02:08.240Z,1.70
2018-09-09T13:04:36.569Z,2.00
2018-09-09T13:07:04.909Z,1.80
2018-09-09T13:09:33.219Z,2.10
2018-09-09T13:12:01.544Z,1.60
2018-09-09T13:14:29.877Z,1.83
2018-09-09T13:16:58.185Z,1.90
2018-09-09T13:19:26.497Z,1.70
2018-09-09T13:21:54.797Z,2.00
2018-09-09T13:24:23.081Z,2.00
2018-09-09T13:26:51.395Z,1.95
2018-09-09T13:29:19.717Z,1.95
2018-09-09T13:31:48.013Z,1.77
2018-09-09T13:34:16.295Z,1.70
2018-09-09T13:36:44.574Z,1.70
2018-09-09T13:39:12.902Z,1.80
2018-09-09T13:41:41.198Z,1.90
2018-09-09T13:44:09.560Z,1.70
2018-09-09T13:46:37.925Z,2.00
2018-09-09T13:49:06.262Z,1.90
2018-09-09T13:51:34.596Z,1.50
2018-09-09T13:54:02.897Z,1.50
2018-09-09T13:56:31.199Z,1.77
2018-09-09T13:58:59.496Z,1.50
2018-09-09T14:01:28.163Z,1.40
2018-09-09T14:03:56.609Z,1.60
2018-09-09T14:06:24.820Z,1.70
2018-09-09T14:08:53.163Z,1.70
2018-09-09T14:11:21.455Z,1.60
2018-09-09T14:13:49.764Z,1.90
2018-09-09T14:16:18.109Z,1.60
2018-09-09T14:18:46.415Z,1.50
2018-09-09T14:21:15.036Z,1.70
2018-09-09T14:23:43.654Z,1.60
2018-09-09T14:26:12.008Z,1.60
2018-09-09T14:28:40.305Z,1.80
2018-09-09T14:31:08.615Z,1.70
2018-09-09T14:33:36.944Z,1.50
2018-09-09T14:36:05.264Z,1.40
2018-09-09T14:38:33.563Z,1.60
2018-09-09T14:41:02.000Z,1.40
2018-09-09T14:43:30.270Z,1.50
2018-09-09T14:45:58.551Z,1.50
2018-09-09T14:48:26.915Z,1.52
2018-09-09T14:50:55.269Z,1.60
2018-09-09T14:53:23.619Z,1.50
2018-09-09T14:55:51.853Z,1.57
2018-09-09T14:58:20.143Z,1.43
2018-09-09T15:00:48.519Z,1.67
2018-09-09T15:03:16.846Z,1.40
2018-09-09T15:05:45.150Z,1.70
2018-09-09T15:08:13.426Z,1.70
2018-09-09T15:10:41.782Z,1.42
2018-09-09T15:13:10.065Z,1.60
2018-09-09T15:15:38.420Z,1.60
2018-09-09T15:18:06.753Z,1.45
2018-09-09T15:20:35.043Z,1.50
2018-09-09T15:23:03.323Z,1.40
2018-09-09T15:25:31.630Z,1.47
2018-09-09T15:27:59.948Z,1.77
2018-09-09T15:30:28.252Z,1.60
2018-09-09T15:32:56.574Z,1.40
2018-09-09T15:35:24.902Z,1.50
2018-09-09T15:37:53.257Z,1.50
2018-09-09T15:40:21.612Z,1.92
2018-09-09T15:42:49.896Z,1.75
2018-09-09T15:45:18.165Z,2.20
2018-09-09T15:47:46.588Z,1.57
2018-09-09T15:50:14.951Z,1.77
2018-09-09T15:52:43.280Z,1.70
2018-09-09T15:55:12.054Z,2.50
2018-09-09T15:57:40.471Z,3.20
2018-09-09T16:00:08.829Z,3.47
2018-09-09T16:02:37.170Z,2.70
2018-09-09T16:05:06.041Z,2.80
2018-09-09T16:07:34.518Z,2.80
2018-09-09T16:10:02.875Z,2.20
2018-09-09T16:12:31.178Z,1.73
2018-09-09T16:14:59.480Z,1.72
2018-09-09T16:17:28.458Z,2.10
2018-09-09T16:19:56.799Z,1.60
2018-09-09T16:22:25.126Z,1.40
2018-09-09T16:24:53.841Z,1.70
2018-09-09T16:27:22.152Z,1.37
2018-09-09T16:29:50.425Z,1.60
2018-09-09T16:32:18.729Z,1.80
2018-09-09T16:34:47.016Z,3.70
2018-09-09T16:37:15.341Z,7.35
2018-09-09T16:39:43.650Z,9.67
2018-09-09T16:42:11.953Z,6.77
2018-09-09T16:44:40.285Z,6.62
2018-09-09T16:47:08.637Z,4.30
2018-09-09T16:49:36.977Z,2.87
2018-09-09T16:52:05.297Z,2.40
2018-09-09T16:54:33.637Z,2.20
2018-09-09T16:57:02.835Z,1.80
2018-09-09T16:59:31.114Z,1.60
2018-09-09T17:01:59.408Z,1.50
2018-09-09T17:04:27.847Z,1.40
2018-09-09T17:06:56.204Z,1.67
2018-09-09T17:09:24.500Z,1.50
2018-09-09T17:11:52.828Z,1.80
2018-09-09T17:14:21.244Z,1.60
2018-09-09T17:16:49.543Z,1.60
2018-09-09T17:19:17.838Z,3.35
2018-09-09T17:21:46.094Z,10.23
2018-09-09T17:24:14.358Z,12.83
2018-09-09T17:26:42.644Z,5.27
2018-09-09T17:29:10.913Z,10.30
2018-09-09T17:31:39.213Z,11.03
2018-09-09T17:34:07.676Z,13.58
2018-09-09T17:36:35.985Z,14.40
2018-09-09T17:39:06.501Z,4.20
2018-09-09T17:41:34.864Z,4.43
2018-09-09T17:44:03.134Z,3.63
2018-09-09T17:46:31.472Z,2.70
2018-09-09T17:48:59.811Z,3.20
2018-09-09T17:51:28.134Z,5.27
2018-09-09T17:53:56.539Z,6.50
2018-09-09T17:56:24.899Z,4.85
2018-09-09T17:58:53.459Z,4.67
2018-09-09T18:01:21.813Z,3.70
2018-09-09T18:03:50.295Z,3.92
2018-09-09T18:06:19.173Z,3.30
2018-09-09T18:08:48.081Z,3.67
2018-09-09T18:11:16.420Z,8.35
2018-09-09T18:13:44.673Z,7.50
2018-09-09T18:16:12.974Z,5.47
2018-09-09T18:18:41.241Z,3.80
2018-09-09T18:21:09.529Z,3.50
2018-09-09T18:23:37.825Z,5.10
2018-09-09T18:26:06.109Z,5.40
2018-09-09T18:28:34.409Z,5.00
2018-09-09T18:31:02.691Z,4.95
2018-09-09T18:33:30.930Z,4.28
2018-09-09T18:35:59.277Z,3.70
2018-09-09T18:38:27.572Z,3.22
2018-09-09T18:40:55.925Z,3.30
2018-09-09T18:43:24.256Z,3.80
2018-09-09T18:45:52.566Z,4.08
2018-09-09T18:48:20.898Z,4.85
2018-09-09T18:50:49.217Z,5.63
2018-09-09T18:53:17.484Z,5.90
2018-09-09T18:55:45.797Z,5.57
2018-09-09T18:58:14.123Z,4.80
2018-09-09T19:00:42.426Z,4.20
2018-09-09T19:03:10.725Z,6.00
2018-09-09T19:05:38.997Z,5.70
2018-09-09T19:08:07.356Z,5.03
2018-09-09T19:10:35.633Z,5.00
2018-09-09T19:13:03.888Z,4.60
2018-09-09T19:15:32.199Z,4.70
2018-09-09T19:18:00.524Z,4.80
2018-09-09T19:20:28.788Z,4.40
2018-09-09T19:22:57.072Z,3.80
2018-09-09T19:25:25.395Z,4.30
2018-09-09T19:27:53.702Z,3.80
2018-09-09T19:30:22.002Z,3.30
2018-09-09T19:32:50.327Z,3.50
2018-09-09T19:35:18.644Z,3.27
2018-09-09T19:37:46.940Z,3.27
2018-09-09T19:40:15.287Z,3.30
2018-09-09T19:42:43.683Z,3.30
2018-09-09T19:45:11.976Z,3.73
2018-09-09T19:47:40.245Z,3.30
2018-09-09T19:50:08.600Z,3.10
2018-09-09T19:52:36.950Z,3.70
2018-09-09T19:55:05.241Z,3.70
2018-09-09T19:57:33.779Z,3.40
2018-09-09T20:00:02.065Z,4.00
2018-09-09T20:02:30.450Z,3.65
2018-09-09T20:05:00.003Z,3.52
2018-09-09T20:07:28.310Z,3.70
2018-09-09T20:09:56.597Z,4.12
2018-09-09T20:12:25.008Z,3.80
2018-09-09T20:14:53.313Z,3.55
2018-09-09T20:17:21.620Z,3.30
2018-09-09T20:19:49.954Z,3.40
2018-09-09T20:22:18.256Z,3.00
2018-09-09T20:24:46.592Z,3.10
2018-09-09T20:27:14.877Z,3.30
2018-09-09T20:29:43.160Z,3.00
2018-09-09T20:32:11.512Z,3.00
2018-09-09T20:34:39.848Z,2.98
2018-09-09T20:37:08.125Z,3.25
2018-09-09T20:39:36.438Z,3.22
2018-09-09T20:42:04.762Z,2.90
2018-09-09T20:44:33.055Z,2.83
2018-09-09T20:47:01.379Z,3.22
2018-09-09T20:49:29.726Z,2.70
2018-09-09T20:51:58.091Z,3.10
2018-09-09T20:54:26.369Z,3.58
2018-09-09T20:56:54.667Z,3.30
2018-09-09T20:59:22.981Z,3.20
2018-09-09T21:01:51.287Z,3.27
2018-09-09T21:04:19.602Z,3.55
2018-09-09T21:06:47.906Z,3.60
2018-09-09T21:09:16.217Z,3.50
2018-09-09T21:11:44.506Z,3.00
2018-09-09T21:14:12.816Z,3.40
2018-09-09T21:16:41.459Z,3.50
2018-09-09T21:19:09.749Z,3.40
2018-09-09T21:21:38.026Z,3.33
2018-09-09T21:24:06.699Z,3.40
2018-09-09T21:26:35.007Z,3.40
2018-09-09T21:29:03.449Z,3.72
2018-09-09T21:31:31.744Z,3.60
2018-09-09T21:34:00.018Z,3.30
2018-09-09T21:36:28.368Z,3.10
2018-09-09T21:38:56.653Z,3.30
2018-09-09T21:41:24.955Z,3.55
2018-09-09T21:43:53.267Z,3.05
2018-09-09T21:46:21.553Z,3.50
2018-09-09T21:48:49.845Z,3.55
2018-09-09T21:51:18.519Z,3.22
2018-09-09T21:53:46.799Z,3.10
2018-09-09T21:56:15.145Z,2.85
2018-09-09T21:58:43.467Z,3.00
2018-09-09T22:01:17.169Z,3.10
2018-09-09T22:03:45.492Z,3.10
2018-09-09T22:06:13.741Z,3.80
2018-09-09T22:08:42.160Z,2.90
2018-09-09T22:11:10.701Z,2.80
2018-09-09T22:13:38.999Z,3.30
2018-09-09T22:16:07.281Z,3.20
2018-09-09T22:18:35.594Z,3.23
2018-09-09T22:21:03.879Z,3.40
2018-09-09T22:23:32.157Z,3.20
2018-09-09T22:26:00.501Z,3.12
2018-09-09T22:28:28.879Z,3.10
2018-09-09T22:30:57.183Z,3.40
2018-09-09T22:33:25.654Z,3.10
2018-09-09T22:35:53.996Z,3.20
2018-09-09T22:38:22.308Z,3.40
2018-09-09T22:40:50.632Z,3.60
2018-09-09T22:43:20.288Z,3.50
2018-09-09T22:45:50.942Z,3.30
2018-09-09T22:48:20.024Z,3.58
2018-09-09T22:50:48.575Z,3.33
2018-09-09T22:53:16.939Z,3.07
2018-09-09T22:55:45.209Z,2.90
2018-09-09T22:58:13.513Z,3.23
2018-09-09T23:00:41.820Z,3.30
2018-09-09T23:03:10.094Z,3.25
2018-09-09T23:05:38.500Z,3.52
2018-09-09T23:08:06.751Z,3.40
2018-09-09T23:10:35.169Z,3.00
2018-09-09T23:13:03.522Z,3.50
2018-09-09T23:15:31.853Z,3.00
2018-09-09T23:18:00.159Z,3.15
2018-09-09T23:20:28.475Z,3.23
2018-09-09T23:22:56.750Z,3.20
2018-09-09T23:25:25.025Z,3.10
2018-09-09T23:27:53.756Z,3.20
2018-09-09T23:30:22.080Z,3.10
2018-09-09T23:32:50.385Z,3.60
2018-09-09T23:35:18.711Z,3.55
2018-09-09T23:37:47.025Z,3.70
2018-09-09T23:40:15.372Z,3.55
2018-09-09T23:42:43.738Z,3.53
2018-09-09T23:45:12.031Z,3.60
2018-09-09T23:47:40.324Z,3.30
2018-09-09T23:50:08.656Z,3.30
2018-09-09T23:52:37.090Z,3.30
2018-09-09T23:55:05.978Z,3.40
2018-09-09T23:57:34.352Z,3.10
